Time;durP1;ratioP1;P1;durP2;ratioP2;P2;SDS_P1;SDS_P2;PMS_P1;PMS_P2;Temp;Humidity;BMP_temperature;BMP_pressure;BME280_temperature;BME280_humidity;BME280_pressure;Samples;Min_cycle;Max_cycle;Signal;HPM_P1;HPM_P2
2023/06/28 00:02:10;;;;;;;3.40;3.10;;;;;;;-141.84;85.20;20212.19;4908227;29;20273;-61
2023/06/28 00:04:39;;;;;;;3.15;2.85;;;;;;;-141.84;85.29;20218.31;4890369;29;20560;-61
2023/06/28 00:07:08;;;;;;;3.73;3.03;;;;;;;-141.84;85.63;20216.25;4890258;29;20258;-61
2023/06/28 00:09:39;;;;;;;5.07;3.20;;;;;;;-141.84;86.02;20204.06;4890441;29;20254;-61
2023/06/28 00:12:08;;;;;;;3.30;3.03;;;;;;;-141.84;86.35;20183.75;4892666;29;20298;-61
2023/06/28 00:14:36;;;;;;;3.85;2.80;;;;;;;-141.84;86.37;20210.16;4908418;29;20643;-60
2023/06/28 00:17:05;;;;;;;3.90;2.90;;;;;;;-141.84;86.38;20175.63;4908672;29;20709;-61
2023/06/28 00:19:33;;;;;;;5.50;2.83;;;;;;;-141.84;85.68;20208.13;4908274;29;20233;-61
2023/06/28 00:22:03;;;;;;;4.63;2.90;;;;;;;-141.84;85.58;20179.69;4908108;29;20241;-61
2023/06/28 00:24:31;;;;;;;6.17;3.20;;;;;;;-141.84;85.42;20179.69;4901228;29;20669;-61
2023/06/28 00:27:01;;;;;;;3.75;2.83;;;;;;;-141.84;85.28;20177.66;4908760;29;20242;-60
2023/06/28 00:29:30;;;;;;;4.37;3.00;;;;;;;-141.84;85.03;20139.03;4909205;29;20265;-61
2023/06/28 00:31:58;;;;;;;4.97;2.87;;;;;;;-141.84;85.00;20153.25;4908660;29;20689;-60
2023/06/28 00:34:27;;;;;;;4.18;2.92;;;;;;;-141.84;84.84;20151.22;4881912;29;20235;-60
2023/06/28 00:36:55;;;;;;;3.90;2.80;;;;;;;-141.84;85.25;20139.03;4889665;29;20713;-61
2023/06/28 00:39:24;;;;;;;4.17;3.20;;;;;;;-141.84;85.75;20139.03;4890002;29;20650;-60
2023/06/28 00:41:52;;;;;;;5.40;2.90;;;;;;;-141.84;85.57;20141.06;4889789;29;20313;-61
2023/06/28 00:44:22;;;;;;;5.20;3.53;;;;;;;-141.84;85.90;20161.38;4900491;29;20306;-61
2023/06/28 00:46:52;;;;;;;4.97;3.53;;;;;;;-141.84;85.95;20143.09;4906364;29;20238;-61
2023/06/28 00:49:21;;;;;;;5.40;3.53;;;;;;;-141.84;86.00;20165.44;4889669;29;20230;-59
2023/06/28 00:51:50;;;;;;;3.43;3.13;;;;;;;-141.84;85.40;20177.66;4900666;29;20333;-61
2023/06/28 00:54:19;;;;;;;7.47;3.30;;;;;;;-141.84;84.47;20187.81;4901020;29;20718;-61
2023/06/28 00:56:49;;;;;;;4.73;3.50;;;;;;;-141.84;83.62;20179.69;4908148;29;20244;-61
2023/06/28 00:59:18;;;;;;;4.38;3.22;;;;;;;-141.84;83.73;20204.06;4908525;29;20230;-60
2023/06/28 01:01:49;;;;;;;4.70;3.37;;;;;;;-141.84;84.05;20214.22;4907608;28;20248;-61
2023/06/28 01:04:18;;;;;;;4.60;3.40;;;;;;;-141.84;84.37;20214.22;4883459;29;20234;-60
2023/06/28 01:06:51;;;;;;;3.88;3.47;;;;;;;-141.84;84.55;20206.09;4888990;29;20718;-61
2023/06/28 01:09:21;;;;;;;3.40;3.10;;;;;;;-141.84;83.47;20240.66;4889773;29;20234;-60
2023/06/28 01:11:51;;;;;;;6.33;2.90;;;;;;;-141.84;82.83;20258.94;4902598;28;20214;-61
2023/06/28 01:14:20;;;;;;;3.83;2.83;;;;;;;-141.84;82.30;20246.75;4885107;29;20312;-61
2023/06/28 01:16:54;;;;;;;2.90;2.60;;;;;;;-141.84;82.52;20250.81;4907290;29;20773;-61
2023/06/28 01:19:24;;;;;;;5.37;3.20;;;;;;;-141.84;82.17;20246.75;4907770;28;20238;-61
2023/06/28 01:21:56;;;;;;;6.40;3.30;;;;;;;-141.84;82.12;20238.63;4908341;28;20658;-62
2023/06/28 01:24:26;;;;;;;3.17;2.70;;;;;;;-141.84;81.44;20218.31;4900782;28;20309;-61
2023/06/28 01:26:58;;;;;;;3.03;2.72;;;;;;;-141.84;81.71;20232.53;4907704;28;20238;-60
2023/06/28 01:29:27;;;;;;;3.77;2.80;;;;;;;-141.84;82.15;20226.44;4903729;28;20218;-61
2023/06/28 01:31:56;;;;;;;3.40;2.87;;;;;;;-141.84;82.85;20206.09;4888219;29;20237;-62
2023/06/28 01:34:26;;;;;;;3.58;3.08;;;;;;;-141.84;81.09;20216.25;4880383;29;20237;-62
2023/06/28 01:36:57;;;;;;;3.90;3.10;;;;;;;-141.84;80.41;20273.19;4888529;29;20623;-62
2023/06/28 01:39:29;;;;;;;4.47;3.40;;;;;;;-141.84;80.76;20271.16;4888773;29;20326;-61
2023/06/28 01:41:59;;;;;;;3.40;3.05;;;;;;;-141.84;80.91;20265.03;4888497;29;20214;-61
2023/06/28 01:44:28;;;;;;;4.93;3.60;;;;;;;-141.84;80.53;20289.44;4875707;29;20294;-61
2023/06/28 01:46:57;;;;;;;3.77;3.23;;;;;;;-141.84;80.48;20275.22;4887940;29;20542;-61
2023/06/28 01:49:26;;;;;;;3.90;3.20;;;;;;;-141.84;81.13;20281.31;4888173;29;20730;-60
2023/06/28 01:51:55;;;;;;;5.13;3.40;;;;;;;-141.84;81.65;20228.47;4900126;28;20309;-61
2023/06/28 01:54:23;;;;;;;5.18;3.88;;;;;;;-141.84;81.07;20224.41;4900185;28;20309;-60
2023/06/28 01:56:53;;;;;;;4.33;3.90;;;;;;;-141.84;82.00;20228.47;4907186;28;20277;-61
2023/06/28 01:59:21;;;;;;;8.40;4.63;;;;;;;-141.84;79.92;20273.19;4907523;28;20268;-60
2023/06/28 02:01:50;;;;;;;4.65;3.88;;;;;;;-141.84;80.99;20240.66;4906827;28;20261;-62
2023/06/28 02:04:19;;;;;;;9.20;3.57;;;;;;;-141.84;81.75;20216.25;4881815;29;20286;-61
2023/06/28 02:06:47;;;;;;;4.10;3.53;;;;;;;-141.84;82.51;20210.16;4887879;29;20238;-61
2023/06/28 02:09:16;;;;;;;4.38;3.95;;;;;;;-141.84;82.66;20183.75;4887856;29;20261;-62
2023/06/28 02:11:44;;;;;;;4.90;3.55;;;;;;;-141.84;82.60;20197.97;4901050;28;20539;-61
2023/06/28 02:14:15;;;;;;;5.63;3.22;;;;;;;-141.84;83.17;20189.84;4898769;28;20289;-60
2023/06/28 02:16:43;;;;;;;4.10;3.73;;;;;;;-141.84;83.71;20173.59;4906206;28;20284;-60
2023/06/28 02:19:12;;;;;;;4.27;3.87;;;;;;;-141.84;84.23;20177.66;4906730;28;20244;-62
2023/06/28 02:21:41;;;;;;;6.18;3.80;;;;;;;-141.84;84.25;20143.09;4906820;28;20230;-61
2023/06/28 02:24:10;;;;;;;4.93;3.47;;;;;;;-141.84;84.41;20139.03;4904626;28;22416;-62
2023/06/28 02:26:38;;;;;;;6.18;3.40;;;;;;;-141.84;83.25;20169.53;4895551;29;20250;-61
2023/06/28 02:29:07;;;;;;;4.53;3.90;;;;;;;-141.84;83.54;20118.69;4887568;29;20273;-61
2023/06/28 02:31:37;;;;;;;4.87;3.40;;;;;;;-141.84;83.06;20161.38;4886856;29;20329;-61
2023/06/28 02:34:05;;;;;;;5.70;2.80;;;;;;;-141.84;82.91;20173.59;4878212;29;20698;-61
2023/06/28 02:36:34;;;;;;;5.47;3.07;;;;;;;-141.84;83.26;20114.63;4862489;28;20247;-61
2023/06/28 02:39:02;;;;;;;4.63;3.27;;;;;;;-141.84;83.43;20151.22;4869353;29;20233;-64
2023/06/28 02:41:31;;;;;;;2.97;2.67;;;;;;;-141.84;83.21;20143.09;4888092;29;20665;-64
2023/06/28 02:43:59;;;;;;;3.17;2.87;;;;;;;-141.84;82.96;20181.72;4902647;28;20321;-65
2023/06/28 02:46:28;;;;;;;4.13;3.17;;;;;;;-141.84;83.37;20096.34;4898475;28;20317;-64
2023/06/28 02:48:58;;;;;;;6.70;3.03;;;;;;;-141.84;83.50;20157.31;4906378;28;20241;-65
2023/06/28 02:51:26;;;;;;;3.27;2.83;;;;;;;-141.84;83.45;20159.34;4906218;28;20280;-65
2023/06/28 02:53:55;;;;;;;3.37;3.07;;;;;;;-141.84;84.01;20155.28;4906145;28;20209;-65
2023/06/28 02:56:25;;;;;;;4.00;2.80;;;;;;;-141.84;84.39;20106.50;4899560;28;20210;-65
2023/06/28 02:58:54;;;;;;;2.90;2.70;;;;;;;-141.84;84.87;20118.69;4906170;28;20332;-65
2023/06/28 03:01:22;;;;;;;3.37;3.07;;;;;;;-141.84;84.81;20102.44;4906754;28;20336;-64
2023/06/28 03:03:51;;;;;;;4.70;2.83;;;;;;;-141.84;84.37;20116.66;4892603;28;20767;-64
2023/06/28 03:06:21;;;;;;;5.40;2.90;;;;;;;-141.84;83.68;20098.38;4879855;29;20242;-65
2023/06/28 03:08:49;;;;;;;3.70;3.40;;;;;;;-141.84;83.69;20102.44;4887502;29;20207;-64
2023/06/28 03:11:18;;;;;;;4.47;3.60;;;;;;;-141.84;83.73;20130.91;4896798;28;20713;-64
2023/06/28 03:13:46;;;;;;;3.63;3.20;;;;;;;-141.84;83.60;20134.97;4905839;28;20226;-63
2023/06/28 03:16:15;;;;;;;5.20;3.10;;;;;;;-141.84;83.62;20116.66;4897789;28;20265;-64
2023/06/28 03:18:45;;;;;;;4.73;3.40;;;;;;;-141.84;83.96;20112.59;4906023;28;20277;-64
2023/06/28 03:21:13;;;;;;;5.40;2.93;;;;;;;-141.84;83.47;20128.88;4905981;28;20230;-63
2023/06/28 03:23:43;;;;;;;5.23;3.30;;;;;;;-141.84;83.73;20090.25;4888803;29;20570;-65
2023/06/28 03:26:12;;;;;;;4.23;3.23;;;;;;;-141.84;83.97;20108.53;4879942;29;20326;-65
2023/06/28 03:28:40;;;;;;;3.93;3.33;;;;;;;-141.84;84.22;20082.13;4886863;29;20230;-65
2023/06/28 03:31:09;;;;;;;5.50;3.50;;;;;;;-141.84;83.68;20139.03;4887293;29;20293;-64
2023/06/28 03:33:37;;;;;;;6.90;3.53;;;;;;;-141.84;83.28;20118.69;4887055;29;20262;-65
2023/06/28 03:36:06;;;;;;;6.23;3.30;;;;;;;-141.84;83.41;20090.25;4886724;29;20294;-63
2023/06/28 03:38:34;;;;;;;7.17;2.90;;;13.50;99.90;;;-141.84;83.13;20116.66;4881185;29;20265;-64
2023/06/28 03:41:04;;;;;;;3.63;3.00;;;13.40;99.90;;;-141.84;82.40;20122.78;4887417;29;20243;-65
2023/06/28 03:43:32;;;;;;;5.13;3.00;;;13.40;99.90;;;-141.84;82.83;20124.81;4898892;28;20238;-65
2023/06/28 03:46:00;;;;;;;7.20;3.17;;;13.30;99.90;;;-141.84;83.16;20130.91;4905700;28;20289;-65
2023/06/28 03:48:28;;;;;;;3.90;2.80;;;13.40;99.90;;;-141.84;82.39;20143.09;4899102;28;20260;-65
2023/06/28 03:50:57;;;;;;;7.47;3.60;;;13.30;99.90;;;-141.84;82.00;20124.81;4905755;28;20198;-65
2023/06/28 03:53:25;;;;;;;6.50;3.53;;;13.40;99.90;;;-141.84;81.36;20126.84;4906231;28;20588;-65
2023/06/28 03:55:53;;;;;;;2.60;2.40;;;13.40;99.90;;;-141.84;79.82;20175.63;4905763;28;20391;-65
2023/06/28 03:58:23;;;;;;;3.67;2.43;;;13.40;99.90;;;-141.84;80.81;20159.34;4901731;28;20265;-65
2023/06/28 04:00:52;;;;;;;3.20;2.63;;;13.50;99.90;;;-141.84;81.40;20126.84;4909656;28;20334;-64
2023/06/28 04:03:21;;;;;;;3.97;2.80;;;13.50;99.90;;;-141.84;81.78;20149.19;4899334;29;20654;-65
2023/06/28 04:05:49;;;;;;;2.97;2.70;;;13.50;99.90;;;-141.84;80.69;20155.28;4890765;29;20282;-65
2023/06/28 04:08:17;;;;;;;4.60;2.92;;;13.50;99.90;;;-141.84;80.63;20230.50;4901268;28;20358;-67
2023/06/28 04:10:46;;;;;;;6.17;3.00;;;13.60;99.90;;;-141.84;80.69;20179.69;4908893;28;20324;-65
2023/06/28 04:13:14;;;;;;;5.20;2.60;;;13.60;99.90;;;-141.84;81.08;20183.75;4908974;29;20612;-64
2023/06/28 04:15:43;;;;;;;3.33;2.63;;;13.60;99.90;;;-141.84;80.20;20191.88;4922920;28;20288;-66
2023/06/28 04:18:11;;;;;;;4.25;2.80;;;13.70;99.90;;;-141.84;79.45;20220.34;4916088;28;20233;-64
2023/06/28 04:20:40;;;;;;;4.47;2.80;;;13.80;99.90;;;-141.84;79.61;20260.97;4909493;29;20253;-65
2023/06/28 04:23:08;;;;;;;4.38;2.95;;;13.90;99.90;;;-141.84;78.75;20191.88;4909002;29;20363;-67
2023/06/28 04:25:37;;;;;;;3.42;2.90;;;13.90;99.90;;;-141.84;77.19;20234.56;4896942;29;20334;-67
2023/06/28 04:28:05;;;;;;;6.05;2.72;;;14.00;99.90;;;-141.84;77.84;20260.97;4890103;29;20949;-65
2023/06/28 04:30:34;;;;;;;3.22;2.90;;;14.00;99.90;;;-141.84;78.41;20273.19;4882798;29;20619;-64
2023/06/28 04:33:04;;;;;;;4.63;3.50;;;14.10;99.90;;;-141.84;77.83;20307.72;4889476;29;20304;-64
2023/06/28 04:35:34;;;;;;;4.95;3.50;;;14.20;99.90;;;-141.84;76.95;20317.91;4890377;29;20274;-65
2023/06/28 04:38:04;;;;;;;3.88;2.70;;;14.30;99.90;;;-141.84;77.46;20279.28;4889692;29;20710;-64
2023/06/28 04:40:33;;;;;;;6.57;3.40;;;14.30;99.90;;;-141.84;76.71;20256.91;4882137;29;20324;-65
2023/06/28 04:43:01;;;;;;;3.17;2.88;;;14.40;99.90;;;-141.84;75.56;20360.59;4889025;29;20254;-64
2023/06/28 04:45:36;;;;;;;5.80;2.97;;;14.60;99.90;;;-141.84;75.26;20415.47;4894442;29;20293;-65
2023/06/28 04:48:08;;;;;;;7.38;3.22;;;14.70;99.90;;;-141.84;73.84;20397.16;4906396;29;20209;-66
2023/06/28 04:50:38;;;;;;;4.72;3.00;;;14.90;99.90;;;-141.84;71.63;20508.97;4888543;29;20210;-64
2023/06/28 04:53:07;;;;;;;4.70;2.65;;;15.10;99.90;;;-141.84;70.46;20687.84;4908199;28;20805;-65
2023/06/28 04:55:36;;;;;;;3.65;2.50;;;15.70;99.90;;;-141.84;64.70;21131.03;4907631;28;20230;-65
2023/06/28 04:58:05;;;;;;;3.80;2.60;;;17.10;99.90;;;-141.84;56.07;21690.16;4907979;28;20242;-65
2023/06/28 05:00:34;;;;;;;3.88;2.42;;;18.70;99.90;;;-141.84;51.25;22168.03;4901442;28;20234;-66
2023/06/28 05:03:02;;;;;;;3.83;1.75;;;20.30;99.90;;;-141.84;46.58;22578.81;4900541;29;20218;-65
2023/06/28 05:05:32;;;;;;;2.70;2.00;;;21.30;99.90;;;-141.84;44.00;22869.66;4889732;29;20250;-65
2023/06/28 05:08:00;;;;;;;4.15;1.83;;;22.30;99.90;;;-141.84;42.56;23121.88;4888715;29;20319;-66
2023/06/28 05:10:28;;;;;;;2.45;1.70;;;23.10;99.90;;;-141.84;39.30;23453.47;4884274;28;20647;-67
2023/06/28 05:12:57;;;;;;;3.05;1.70;;;23.70;99.90;;;-141.84;40.43;23180.88;4907915;28;20320;-65
2023/06/28 05:15:25;;;;;;;3.95;1.67;;;23.80;99.90;;;-141.84;40.84;23111.72;4895644;29;20310;-66
2023/06/28 05:17:54;;;;;;;4.88;1.75;;;23.70;99.90;;;-141.84;40.79;23134.09;4888992;29;20290;-64
2023/06/28 05:20:22;;;;;;;4.68;1.90;;;23.70;99.90;;;-141.84;41.70;23069.00;4881226;29;20242;-64
2023/06/28 05:23:09;;;;;;;3.85;1.67;;;23.20;99.90;;;-141.84;41.81;23026.28;4888721;29;20273;-65
2023/06/28 05:25:38;;;;;;;2.10;1.48;;;23.50;99.90;;;-141.84;41.05;23168.69;4888564;29;20305;-65
2023/06/28 05:28:09;;;;;;;5.07;1.65;;;23.40;99.90;;;-141.84;40.66;23130.03;4888548;29;20265;-65
2023/06/28 05:30:37;;;;;;;2.25;1.60;;;23.50;99.90;;;-141.84;41.43;23091.38;4885347;29;20325;-65
2023/06/28 05:33:05;;;;;;;3.67;1.65;;;23.30;99.90;;;-141.84;40.87;23069.00;4890629;29;20218;-64
2023/06/28 05:35:35;;;;;;;4.70;1.85;;;23.30;99.90;;;-141.84;41.44;23016.13;4907632;29;20237;-66
2023/06/28 05:38:06;;;;;;;3.65;1.83;;;22.90;99.90;;;-141.84;41.41;22928.66;4890125;29;20310;-64
2023/06/28 05:40:35;;;;;;;4.88;1.98;;;23.10;99.90;;;-141.84;42.96;22765.94;4883029;28;20270;-65
2023/06/28 05:43:03;;;;;;;3.53;2.00;;;22.60;99.90;;;-141.84;44.64;22473.06;4898238;29;20284;-66
2023/06/28 05:45:31;;;;;;;3.15;1.80;;;22.20;99.90;;;-141.84;46.71;22239.19;4907504;29;20309;-65
2023/06/28 05:48:00;;;;;;;6.38;2.10;;;21.70;99.90;;;-141.84;49.16;21930.09;4906908;29;20206;-66
2023/06/28 05:50:29;;;;;;;6.32;2.10;;;21.10;99.90;;;-141.84;52.33;21627.13;4899353;29;20606;-65
2023/06/28 05:52:57;;;;;;;5.55;2.25;;;20.40;99.90;;;-141.84;54.54;21472.59;4907599;29;20832;-64
2023/06/28 05:55:26;;;;;;;3.50;2.35;;;19.90;99.90;;;-141.84;55.78;21456.34;4906883;29;20269;-64
2023/06/28 05:57:55;;;;;;;5.28;2.20;;;19.50;99.90;;;-141.84;57.24;21362.81;4907050;29;20226;-65
2023/06/28 06:00:23;;;;;;;4.57;2.38;;;19.20;99.90;;;-141.84;57.03;21362.81;4899098;29;20324;-65
2023/06/28 06:02:52;;;;;;;5.25;2.10;;;19.00;99.90;;;-141.84;58.87;21366.88;4888842;29;20302;-62
2023/06/28 06:05:20;;;;;;;4.25;2.45;;;19.00;99.90;;;-141.84;58.32;21326.22;4888718;29;20215;-62
2023/06/28 06:07:48;;;;;;;4.20;2.13;;;18.80;99.90;;;-141.84;58.87;21301.81;4887506;29;20230;-62
2023/06/28 06:10:16;;;;;;;5.20;2.35;;;18.80;99.90;;;-141.84;58.74;21269.28;4880047;29;20234;-61
2023/06/28 06:12:47;;;;;;;5.95;2.20;;;18.80;99.90;;;-141.84;59.48;21301.81;4887730;29;20264;-62
2023/06/28 06:15:15;;;;;;;5.07;2.58;;;18.90;99.90;;;-141.84;59.08;21338.41;4898258;29;20241;-59
2023/06/28 06:17:43;;;;;;;6.90;2.67;;;18.90;99.90;;;-141.84;59.88;21253.00;4901781;29;20246;-62
2023/06/28 06:20:15;;;;;;;7.25;2.58;;;18.70;99.90;;;-141.84;59.69;21281.47;4880378;29;20294;-60
2023/06/28 06:22:43;;;;;;;6.00;2.22;;;18.80;99.90;;;-141.84;58.51;21342.47;4887744;29;20234;-63
2023/06/28 06:25:12;;;;;;;7.20;2.50;;;19.00;99.90;;;-141.84;58.78;21360.78;4887845;29;20231;-62
2023/06/28 06:27:40;;;;;;;4.68;2.47;;;19.10;99.90;;;-141.84;58.23;21391.28;4876967;29;20290;-64
2023/06/28 06:30:11;;;;;;;6.65;2.35;;;19.20;99.90;;;-141.84;58.02;21348.56;4869095;29;20267;-66
2023/06/28 06:32:39;;;;;;;4.97;2.25;;;19.30;99.90;;;-141.84;58.57;21407.53;4873348;29;20246;-63
2023/06/28 06:35:09;;;;;;;6.30;2.40;;;19.40;99.90;;;-141.84;57.29;21472.59;4886667;29;20735;-63
2023/06/28 06:37:37;;;;;;;4.95;2.50;;;19.60;99.90;;;-141.84;57.82;21462.44;4901125;28;20316;-63
2023/06/28 06:40:14;;;;;;;5.95;2.50;;;19.60;99.90;;;-141.84;57.53;21399.41;4906122;28;20762;-63
2023/06/28 06:42:43;;;;;;;6.55;2.65;;;19.50;99.90;;;-141.84;57.45;21431.94;4911227;28;20277;-62
2023/06/28 06:45:16;;;;;;;7.85;2.28;;;19.50;99.90;;;-141.84;56.44;21446.16;4911916;29;20312;-62
2023/06/28 06:47:46;;;;;;;5.00;2.40;;;19.60;99.90;;;-141.84;56.70;21482.75;4906320;29;20217;-63
2023/06/28 06:50:14;;;;;;;4.00;2.40;;;19.70;99.90;;;-141.84;56.50;21545.78;4898565;29;20234;-62
2023/06/28 06:52:43;;;;;;;4.63;2.30;;;19.90;99.90;;;-141.84;56.11;21600.69;4887788;29;20235;-65
2023/06/28 06:55:11;;;;;;;3.40;2.47;;;20.20;99.90;;;-141.84;54.90;21592.56;4887708;29;20230;-64
2023/06/28 06:57:39;;;;;;;4.53;2.40;;;20.10;99.90;;;-141.84;54.86;21631.19;4887129;29;20264;-64
2023/06/28 07:00:09;;;;;;;6.38;2.33;;;20.30;99.90;;;-141.84;54.92;21584.44;4886709;29;20314;-65
2023/06/28 07:02:39;;;;;;;8.40;2.83;;;20.10;99.90;;;-141.84;56.34;21523.44;4884253;29;20637;-65
2023/06/28 07:05:07;;;;;;;5.82;2.40;;;19.90;99.90;;;-141.84;55.91;21551.91;4886871;29;20230;-65
2023/06/28 07:07:36;;;;;;;5.47;2.30;;;19.90;99.90;;;-141.84;56.25;21525.47;4886954;29;20586;-65
2023/06/28 07:10:06;;;;;;;5.03;2.30;;;19.90;99.90;;;-141.84;56.71;21545.78;4887234;29;20886;-65
2023/06/28 07:12:37;;;;;;;6.03;2.65;;;19.80;99.90;;;-141.84;56.77;21407.53;4874400;29;20262;-64
2023/06/28 07:15:07;;;;;;;5.93;2.40;;;19.60;99.90;;;-141.84;57.48;21399.41;4898103;28;20285;-65
2023/06/28 07:17:35;;;;;;;4.60;2.53;;;19.50;99.90;;;-141.84;56.23;21446.16;4925240;28;20209;-61
2023/06/28 07:20:07;;;;;;;6.03;2.75;;;19.50;99.90;;;-141.84;55.59;21549.84;4924560;28;20237;-62
2023/06/28 07:22:35;;;;;;;4.55;2.33;;;19.70;99.90;;;-141.84;54.55;21625.09;4902666;29;20246;-64
2023/06/28 07:25:04;;;;;;;5.60;2.35;;;20.00;99.90;;;-141.84;52.62;21696.25;4905440;29;20617;-62
2023/06/28 07:27:32;;;;;;;5.07;2.65;;;20.30;99.90;;;-141.84;53.52;21712.53;4905131;28;20238;-63
2023/06/28 07:30:01;;;;;;;7.03;2.67;;;20.40;99.90;;;-141.84;53.48;21673.88;4905329;29;20269;-63
2023/06/28 07:32:29;;;;;;;9.15;2.63;;;20.40;99.90;;;-141.84;52.65;21639.31;4900783;29;20899;-63
2023/06/28 07:34:57;;;;;;;5.22;2.40;;;20.10;99.90;;;-141.84;53.51;21614.94;4908613;29;20273;-62
2023/06/28 07:37:27;;;;;;;5.18;2.35;;;20.10;99.90;;;-141.84;53.37;21566.13;4909562;29;20711;-62
2023/06/28 07:39:57;;;;;;;4.10;2.30;;;19.90;99.90;;;-141.84;53.89;21515.28;4909479;29;20375;-63
2023/06/28 07:42:26;;;;;;;4.45;2.40;;;19.70;99.90;;;-141.84;54.06;21549.84;4901758;29;20610;-61
2023/06/28 07:44:55;;;;;;;3.33;2.38;;;19.70;99.90;;;-141.84;54.09;21515.28;4908927;29;20527;-60
2023/06/28 07:47:23;;;;;;;4.88;2.65;;;19.80;99.90;;;-141.84;52.59;21645.44;4909623;29;20679;-62
2023/06/28 07:49:51;;;;;;;4.55;2.60;;;19.90;99.90;;;-141.84;53.18;21643.38;4907995;29;20320;-63
2023/06/28 07:52:19;;;;;;;3.88;2.40;;;20.00;99.90;;;-141.84;54.22;21501.06;4901366;29;20317;-62
2023/06/28 07:54:49;;;;;;;4.13;2.58;;;19.80;99.90;;;-141.84;54.94;21470.56;4908481;28;20341;-63
2023/06/28 07:57:17;;;;;;;6.43;2.50;;;19.60;99.90;;;-141.84;54.87;21450.22;4909225;29;20301;-64
2023/06/28 07:59:45;;;;;;;6.07;2.40;;;19.50;99.90;;;-141.84;52.76;21564.09;4909421;28;20316;-61
2023/06/28 08:02:14;;;;;;;3.63;2.15;;;19.80;99.90;;;-141.84;51.30;21680.00;4901414;28;20741;-62
2023/06/28 08:04:42;;;;;;;4.80;2.15;;;20.00;99.90;;;-141.84;51.49;21700.31;4908483;29;20329;-61
2023/06/28 08:07:10;;;;;;;4.03;2.20;;;20.20;99.90;;;-141.84;51.48;21704.38;4908979;28;20286;-60
2023/06/28 08:09:38;;;;;;;4.55;2.13;;;20.20;99.90;;;-141.84;52.75;21627.13;4907813;29;20249;-60
2023/06/28 08:12:09;;;;;;;7.13;2.17;;;20.20;99.90;;;-141.84;52.34;21669.81;4905647;28;20520;-61
2023/06/28 08:14:37;;;;;;;4.40;2.08;;;20.10;99.90;;;-141.84;52.02;21592.56;4911197;28;20213;-61
2023/06/28 08:17:05;;;;;;;3.03;1.90;;;20.10;99.90;;;-141.84;51.38;21547.81;4923183;28;20356;-60
2023/06/28 08:19:34;;;;;;;3.20;1.98;;;19.90;99.90;;;-141.84;50.78;21547.81;4907944;28;20305;-62
2023/06/28 08:22:03;;;;;;;3.40;1.92;;;19.80;99.90;;;-141.84;49.68;21631.19;4908356;29;20265;-62
2023/06/28 08:24:31;;;;;;;2.47;1.55;;;20.00;99.90;;;-141.84;49.37;21716.59;4900654;29;20257;-63
2023/06/28 08:26:59;;;;;;;3.00;1.75;;;20.20;99.90;;;-141.84;50.05;21779.63;4908294;29;20298;-62
2023/06/28 08:29:28;;;;;;;5.07;2.05;;;20.50;99.90;;;-141.84;49.41;21812.16;4908809;29;20238;-63
2023/06/28 08:31:57;;;;;;;3.75;1.70;;;20.80;99.90;;;-141.84;48.31;21743.03;4907876;28;20736;-63
2023/06/28 08:34:25;;;;;;;4.10;1.88;;;20.60;99.90;;;-141.84;50.24;21633.22;4900202;29;20310;-63
2023/06/28 08:36:53;;;;;;;4.68;1.90;;;20.40;99.90;;;-141.84;50.35;21627.13;4907531;29;20238;-63
2023/06/28 08:39:21;;;;;;;6.15;1.60;;;20.30;99.90;;;-141.84;51.86;21598.66;4907989;28;20230;-65
2023/06/28 08:41:52;;;;;;;2.80;1.60;;;20.30;99.90;;;-141.84;47.83;21651.53;4908527;29;20222;-60
2023/06/28 08:44:23;;;;;;;2.88;1.40;;;20.30;99.90;;;-141.84;47.32;21675.94;4900725;29;20259;-62
2023/06/28 08:46:55;;;;;;;3.03;1.40;;;20.30;99.90;;;-141.84;44.94;21808.09;4907497;29;20226;-59
2023/06/28 08:49:24;;;;;;;2.90;1.60;;;20.60;99.90;;;-141.84;45.44;21891.47;4907733;29;20685;-59
2023/06/28 08:51:55;;;;;;;3.40;1.52;;;20.90;99.90;;;-141.84;46.33;21980.94;4907618;28;20967;-63
2023/06/28 08:54:28;;;;;;;4.13;1.77;;;21.30;99.90;;;-141.84;46.79;21921.97;4900701;28;20678;-63
2023/06/28 08:56:57;;;;;;;6.22;1.70;;;21.40;99.90;;;-141.84;47.19;21812.16;4907829;28;20293;-62
2023/06/28 08:59:40;;;;;;;7.30;1.70;;;21.10;99.90;;;-141.84;48.17;21651.53;4907875;29;20222;-62
2023/06/28 09:02:11;;;;;;;4.07;1.77;;;20.60;99.90;;;-141.84;48.40;21680.00;4907628;29;20242;-63
2023/06/28 09:04:39;;;;;;;2.97;1.75;;;20.30;99.90;;;-141.84;47.69;21773.53;4888651;29;20770;-62
2023/06/28 09:07:09;;;;;;;3.22;1.38;;;20.60;99.90;;;-141.84;45.24;21840.63;4888953;29;20364;-67
2023/06/28 09:09:41;;;;;;;2.97;1.50;;;20.80;99.90;;;-141.84;44.97;21960.59;4888733;29;20241;-65
2023/06/28 09:12:12;;;;;;;2.47;1.30;;;21.10;99.90;;;-141.84;45.19;21991.09;4889590;28;20838;-64
2023/06/28 09:14:41;;;;;;;4.15;1.40;;;21.40;99.90;;;-141.84;44.73;21919.94;4913973;28;20225;-64
2023/06/28 09:17:10;;;;;;;2.05;1.30;;;21.30;99.90;;;-141.84;45.22;21948.41;4908163;28;20333;-62
2023/06/28 09:19:38;;;;;;;3.15;1.45;;;21.40;99.90;;;-141.84;45.09;21966.69;4907135;28;20608;-62
2023/06/28 09:22:09;;;;;;;2.75;1.27;;;21.40;99.90;;;-141.84;43.50;22021.59;4907146;28;20299;-63
2023/06/28 09:24:39;;;;;;;1.63;1.20;;;21.50;99.90;;;-141.84;43.03;22056.19;4903128;28;20342;-62
2023/06/28 09:27:09;;;;;;;3.17;1.30;;;21.60;99.90;;;-141.84;43.96;22025.66;4888007;29;20802;-63
2023/06/28 09:29:37;;;;;;;3.55;1.30;;;21.70;99.90;;;-141.84;44.07;21989.06;4888422;29;20202;-63
2023/06/28 09:32:07;;;;;;;2.92;1.23;;;21.70;99.90;;;-141.84;43.61;22043.97;4888154;29;20315;-62
2023/06/28 09:34:38;;;;;;;6.25;1.60;;;21.80;99.90;;;-141.84;43.16;22161.91;4865140;29;20239;-63
2023/06/28 09:37:07;;;;;;;1.73;1.30;;;22.00;99.90;;;-141.84;43.02;22127.34;4888275;29;20766;-64
2023/06/28 09:39:37;;;;;;;3.72;1.70;;;22.10;99.90;;;-141.84;43.49;22029.75;4888153;29;20778;-62
2023/06/28 09:42:07;;;;;;;3.60;1.55;;;21.90;99.90;;;-141.84;44.31;21917.91;4888014;29;20236;-62
2023/06/28 09:44:35;;;;;;;1.88;1.23;;;21.70;99.90;;;-141.84;43.72;21924.00;4882504;29;20691;-63
2023/06/28 09:47:05;;;;;;;2.75;1.20;;;21.50;99.90;;;-141.84;42.46;22007.38;4887912;28;20266;-62
2023/06/28 09:49:34;;;;;;;2.33;1.25;;;21.60;99.90;;;-141.84;41.55;22102.94;4888026;29;20302;-61
2023/06/28 09:52:08;;;;;;;2.53;1.30;;;21.80;99.90;;;-141.84;41.22;22275.81;4887852;29;20291;-61
2023/06/28 09:54:44;;;;;;;2.80;1.40;;;22.30;99.90;;;-141.84;40.88;22279.88;4884865;29;20238;-61
2023/06/28 09:57:14;;;;;;;3.15;1.50;;;22.30;99.90;;;-141.84;41.25;22206.66;4888051;29;20230;-61
2023/06/28 09:59:45;;;;;;;2.15;1.40;;;22.30;99.90;;;-141.84;41.65;22220.91;4888680;29;20211;-60
2023/06/28 10:02:18;;;;;;;2.67;1.45;;;22.10;99.90;;;-141.84;42.53;22109.03;4880274;29;20306;-62
2023/06/28 10:04:47;;;;;;;3.15;1.58;;;22.10;99.90;;;-141.84;42.75;22041.94;4887771;29;20350;-62
2023/06/28 10:07:19;;;;;;;3.65;1.30;;;22.00;99.90;;;-141.84;43.17;21942.31;4886920;29;20238;-64
2023/06/28 10:09:48;;;;;;;3.33;1.58;;;21.70;99.90;;;-141.84;42.11;21968.72;4888017;29;20227;-62
2023/06/28 10:12:20;;;;;;;3.05;1.50;;;21.60;99.90;;;-141.84;40.33;21989.06;4896397;28;20726;-62
2023/06/28 10:14:55;;;;;;;2.13;1.20;;;21.60;99.90;;;-141.84;40.91;22060.25;4907217;28;20229;-63
2023/06/28 10:17:31;;;;;;;2.03;1.38;;;21.70;99.90;;;-141.84;40.12;22074.47;4925296;28;20244;-62
2023/06/28 10:20:02;;;;;;;2.67;1.30;;;21.90;99.90;;;-141.84;40.67;22111.09;4908321;28;20236;-63
2023/06/28 10:22:33;;;;;;;3.17;1.65;;;21.90;99.90;;;-141.84;40.58;22186.31;4898819;28;20813;-62
2023/06/28 10:25:03;;;;;;;2.30;1.35;;;22.10;99.90;;;-141.84;40.45;22192.44;4899372;28;20258;-63
2023/06/28 10:27:33;;;;;;;2.65;1.30;;;22.30;99.90;;;-141.84;41.71;22159.88;4887456;28;20318;-62
2023/06/28 10:30:03;;;;;;;4.13;1.60;;;22.30;99.90;;;-141.84;40.77;22157.84;4887447;29;20250;-63
2023/06/28 10:32:32;;;;;;;3.15;1.55;;;22.30;99.90;;;-141.84;40.60;22168.03;4880302;29;20271;-63
2023/06/28 10:35:02;;;;;;;2.22;1.40;;;22.20;99.90;;;-141.84;41.77;22064.31;4887063;29;20244;-62
2023/06/28 10:37:32;;;;;;;3.40;1.50;;;22.10;99.90;;;-141.84;42.04;21956.53;4887035;29;20239;-63